createdAt,value
2019-03-21T00:00:42.275Z,1.70
2019-03-21T00:01:42.367Z,1.50
2019-03-21T00:02:42.371Z,1.50
2019-03-21T00:03:42.300Z,1.20
2019-03-21T00:05:42.176Z,0.80
2019-03-21T00:06:42.077Z,1.50
2019-03-21T00:07:42.057Z,1.20
2019-03-21T00:08:42.034Z,1.00
2019-03-21T00:09:42.005Z,1.80
2019-03-21T00:10:42.075Z,1.20
2019-03-21T00:11:41.937Z,1.10
2019-03-21T00:12:41.904Z,1.20
2019-03-21T00:13:41.899Z,1.10
2019-03-21T00:14:41.828Z,1.60
2019-03-21T00:15:41.807Z,1.70
2019-03-21T00:16:41.760Z,1.50
2019-03-21T00:17:41.727Z,1.20
2019-03-21T00:18:41.785Z,1.40
2019-03-21T00:19:41.701Z,1.50
2019-03-21T00:20:41.666Z,1.50
2019-03-21T00:21:41.731Z,1.00
2019-03-21T00:22:41.606Z,1.00
2019-03-21T00:23:41.555Z,1.80
2019-03-21T00:24:41.496Z,1.10
2019-03-21T00:25:41.464Z,1.50
2019-03-21T00:26:41.441Z,0.90
2019-03-21T00:27:41.399Z,1.00
2019-03-21T00:28:41.387Z,1.10
2019-03-21T00:29:41.338Z,1.10
2019-03-21T00:30:41.312Z,1.20
2019-03-21T00:31:41.533Z,1.10
2019-03-21T00:32:41.257Z,1.10
2019-03-21T00:33:41.208Z,0.80
2019-03-21T00:34:41.174Z,1.20
2019-03-21T00:35:41.162Z,1.10
2019-03-21T00:36:41.130Z,1.20
2019-03-21T00:37:41.087Z,1.00
2019-03-21T00:38:41.075Z,1.30
2019-03-21T00:39:41.076Z,1.30
2019-03-21T00:40:40.986Z,0.70
2019-03-21T00:41:40.970Z,1.40
2019-03-21T00:42:40.914Z,1.50
2019-03-21T00:43:40.896Z,1.00
2019-03-21T00:44:40.863Z,1.50
2019-03-21T00:45:41.381Z,2.30
2019-03-21T00:46:40.809Z,1.20
2019-03-21T00:47:40.777Z,1.40
2019-03-21T00:48:40.716Z,1.30
2019-03-21T00:49:40.708Z,1.20
2019-03-21T00:50:40.692Z,1.00
2019-03-21T00:51:40.811Z,1.20
2019-03-21T00:52:40.830Z,1.40
2019-03-21T00:53:40.640Z,2.00
2019-03-21T00:54:41.241Z,1.10
2019-03-21T00:55:59.705Z,1.50
2019-03-21T00:56:40.540Z,0.60
2019-03-21T00:57:40.791Z,1.20
2019-03-21T00:58:40.427Z,1.20
2019-03-21T00:59:40.367Z,1.00
2019-03-21T01:00:40.335Z,1.60
2019-03-21T01:01:40.323Z,1.50
2019-03-21T01:02:40.298Z,1.20
2019-03-21T01:03:40.451Z,1.00
2019-03-21T01:04:40.234Z,1.90
2019-03-21T01:05:40.186Z,1.00
2019-03-21T01:06:40.170Z,1.40
2019-03-21T01:07:40.125Z,1.40
2019-03-21T01:08:40.069Z,1.40
2019-03-21T01:09:40.049Z,1.20
2019-03-21T01:10:40.018Z,1.10
2019-03-21T01:11:39.975Z,1.60
2019-03-21T01:12:39.954Z,1.10
2019-03-21T01:13:39.914Z,1.50
2019-03-21T01:14:39.897Z,1.40
2019-03-21T01:15:39.899Z,1.40
2019-03-21T01:16:39.844Z,1.00
2019-03-21T01:17:39.806Z,1.70
2019-03-21T01:18:39.745Z,1.60
2019-03-21T01:19:39.732Z,1.60
2019-03-21T01:20:39.695Z,1.50
2019-03-21T01:21:39.669Z,1.90
2019-03-21T01:22:39.608Z,1.30
2019-03-21T01:23:39.598Z,1.80
2019-03-21T01:24:39.580Z,1.70
2019-03-21T01:25:39.535Z,1.70
2019-03-21T01:26:39.501Z,1.80
2019-03-21T01:27:39.458Z,1.80
2019-03-21T01:28:39.440Z,2.20
2019-03-21T01:29:39.404Z,1.80
2019-03-21T01:30:39.504Z,1.50
2019-03-21T01:31:39.335Z,1.70
2019-03-21T01:32:39.465Z,1.30
2019-03-21T01:33:39.273Z,2.00
2019-03-21T01:34:39.230Z,1.70
2019-03-21T01:35:39.213Z,1.60
2019-03-21T01:36:39.187Z,1.60
2019-03-21T01:37:39.122Z,1.50
2019-03-21T01:38:39.139Z,1.30
2019-03-21T01:39:39.057Z,1.40
2019-03-21T01:40:39.047Z,1.60
2019-03-21T01:41:39.011Z,1.40
2019-03-21T01:42:38.962Z,1.80
2019-03-21T01:43:38.935Z,1.60
2019-03-21T01:44:41.293Z,1.40
2019-03-21T01:45:38.900Z,1.40
2019-03-21T01:46:38.853Z,1.40
2019-03-21T01:47:38.824Z,1.40
2019-03-21T01:48:38.773Z,1.10
2019-03-21T01:49:38.783Z,1.40
2019-03-21T01:50:38.736Z,1.40
2019-03-21T01:51:39.020Z,1.40
2019-03-21T01:52:38.732Z,1.50
2019-03-21T01:53:38.597Z,1.60
2019-03-21T01:54:38.588Z,1.30
2019-03-21T01:55:38.567Z,1.10
2019-03-21T01:56:38.521Z,1.50
2019-03-21T01:57:38.475Z,1.30
2019-03-21T01:58:38.441Z,1.50
2019-03-21T01:59:38.412Z,1.40
2019-03-21T02:00:38.388Z,1.40
2019-03-21T02:01:38.339Z,1.30
2019-03-21T02:02:38.339Z,1.20
2019-03-21T02:03:38.299Z,1.10
2019-03-21T02:04:38.281Z,1.70
2019-03-21T02:05:38.244Z,1.30
2019-03-21T02:06:38.178Z,1.20
2019-03-21T02:07:38.145Z,1.40
2019-03-21T02:08:38.146Z,1.60
2019-03-21T02:09:38.080Z,1.30
2019-03-21T02:10:38.073Z,1.30
2019-03-21T02:11:38.845Z,1.70
2019-03-21T02:12:37.997Z,1.60
2019-03-21T02:13:37.965Z,1.50
2019-03-21T02:14:37.923Z,1.80
2019-03-21T02:15:37.916Z,2.90
2019-03-21T02:16:37.867Z,3.20
2019-03-21T02:17:37.872Z,2.90
2019-03-21T02:18:37.793Z,4.90
2019-03-21T02:19:37.778Z,5.10
2019-03-21T02:20:37.717Z,4.20
2019-03-21T02:21:37.687Z,4.20
2019-03-21T02:22:37.663Z,3.30
2019-03-21T02:23:37.618Z,3.80
2019-03-21T02:24:37.609Z,3.20
2019-03-21T02:25:37.579Z,2.10
2019-03-21T02:26:37.548Z,1.70
2019-03-21T02:27:37.490Z,2.30
2019-03-21T02:28:37.451Z,2.20
2019-03-21T02:29:37.425Z,2.00
2019-03-21T02:30:37.399Z,2.60
2019-03-21T02:31:37.378Z,2.90
2019-03-21T02:32:37.356Z,2.20
2019-03-21T02:33:37.310Z,3.10
2019-03-21T02:34:37.293Z,3.10
2019-03-21T02:35:37.261Z,2.50
2019-03-21T02:36:37.192Z,2.00
2019-03-21T02:37:37.161Z,2.40
2019-03-21T02:38:37.151Z,2.60
2019-03-21T02:39:37.117Z,3.10
2019-03-21T02:40:37.107Z,2.70
2019-03-21T02:41:37.052Z,2.50
2019-03-21T02:42:37.021Z,2.40
2019-03-21T02:43:36.983Z,1.90
2019-03-21T02:44:37.033Z,1.90
2019-03-21T02:45:36.927Z,1.90
2019-03-21T02:46:36.885Z,2.00
2019-03-21T02:47:36.865Z,1.60
2019-03-21T02:48:36.818Z,1.70
2019-03-21T02:49:36.994Z,1.90
2019-03-21T02:50:36.736Z,1.70
2019-03-21T02:51:36.702Z,1.30
2019-03-21T02:52:36.672Z,1.50
2019-03-21T02:53:36.654Z,1.30
2019-03-21T02:54:36.626Z,1.70
2019-03-21T02:55:36.841Z,1.50
2019-03-21T02:56:36.547Z,1.40
2019-03-21T02:57:36.505Z,1.20
2019-03-21T02:58:36.525Z,1.70
2019-03-21T02:59:36.463Z,1.80
2019-03-21T03:00:36.521Z,1.50
2019-03-21T03:01:36.433Z,1.30
2019-03-21T03:02:37.367Z,1.60
2019-03-21T03:03:36.340Z,1.70
2019-03-21T03:04:36.279Z,1.90
2019-03-21T03:05:36.254Z,1.70
2019-03-21T03:06:36.394Z,1.70
2019-03-21T03:07:36.198Z,2.00
2019-03-21T03:08:36.162Z,1.50
2019-03-21T03:09:36.154Z,1.40
2019-03-21T03:10:36.165Z,1.30
2019-03-21T03:11:36.058Z,1.20
2019-03-21T03:12:36.014Z,1.00
2019-03-21T03:13:36.009Z,1.20
2019-03-21T03:14:35.983Z,0.90
2019-03-21T03:15:35.925Z,1.10
2019-03-21T03:16:35.902Z,1.00
2019-03-21T03:17:35.906Z,1.10
2019-03-21T03:18:35.907Z,0.80
2019-03-21T03:19:35.784Z,0.90
2019-03-21T03:20:35.751Z,0.90
2019-03-21T03:21:35.716Z,0.90
2019-03-21T03:22:36.045Z,0.80
2019-03-21T03:23:35.654Z,0.90
2019-03-21T03:24:35.640Z,0.70
2019-03-21T03:25:35.615Z,1.00
2019-03-21T03:26:35.571Z,0.90
2019-03-21T03:27:35.571Z,1.10
2019-03-21T03:28:35.638Z,1.10
2019-03-21T03:29:35.474Z,0.80
2019-03-21T03:30:35.444Z,0.80
2019-03-21T03:31:35.431Z,0.70
2019-03-21T03:32:35.386Z,1.10
2019-03-21T03:34:35.288Z,0.10
2019-03-21T03:35:35.263Z,0.70
2019-03-21T03:36:35.224Z,0.80
2019-03-21T03:37:35.289Z,0.90
2019-03-21T03:38:35.178Z,0.60
2019-03-21T03:39:36.995Z,0.70
2019-03-21T03:40:35.112Z,1.00
2019-03-21T03:41:35.120Z,1.10
2019-03-21T03:42:35.049Z,0.60
2019-03-21T03:43:35.014Z,0.80
2019-03-21T03:44:34.966Z,1.00
2019-03-21T03:45:37.954Z,0.90
2019-03-21T03:46:35.165Z,0.70
2019-03-21T03:47:34.885Z,0.90
2019-03-21T03:48:34.851Z,1.40
2019-03-21T03:49:35.546Z,0.80
2019-03-21T03:50:34.794Z,0.90
2019-03-21T03:51:34.734Z,1.20
2019-03-21T03:52:34.716Z,1.00
2019-03-21T03:53:34.700Z,1.10
2019-03-21T03:54:34.632Z,0.90
2019-03-21T03:55:34.965Z,1.00
2019-03-21T03:56:34.592Z,1.30
2019-03-21T03:57:34.550Z,1.00
2019-03-21T03:58:34.520Z,0.90
2019-03-21T03:59:34.481Z,0.80
2019-03-21T04:00:34.449Z,0.80
2019-03-21T04:01:34.568Z,0.80
2019-03-21T04:02:34.367Z,1.00
2019-03-21T04:03:34.343Z,1.10
2019-03-21T04:04:34.319Z,0.90
2019-03-21T04:05:34.284Z,0.70
2019-03-21T04:06:34.234Z,1.10
2019-03-21T04:07:34.218Z,1.10
2019-03-21T04:08:34.166Z,0.70
2019-03-21T04:09:34.133Z,0.70
2019-03-21T04:10:34.103Z,0.80
2019-03-21T04:11:34.087Z,1.30
2019-03-21T04:12:34.052Z,0.90
2019-03-21T04:13:34.002Z,1.00
2019-03-21T04:14:34.001Z,1.20
2019-03-21T04:15:33.957Z,1.10
2019-03-21T04:16:33.946Z,0.80
2019-03-21T04:17:33.904Z,0.90
2019-03-21T04:18:33.834Z,1.00
2019-03-21T04:19:33.818Z,0.70
2019-03-21T04:20:33.820Z,0.70
2019-03-21T04:21:33.737Z,0.90
2019-03-21T04:22:33.747Z,1.20
2019-03-21T04:23:33.675Z,0.80
2019-03-21T04:24:33.654Z,0.70
2019-03-21T04:25:33.602Z,1.10
2019-03-21T04:26:33.590Z,1.20
2019-03-21T04:27:33.705Z,0.60
2019-03-21T04:28:33.582Z,0.80
2019-03-21T04:29:33.489Z,0.80
2019-03-21T04:30:33.434Z,1.10
2019-03-21T04:31:33.423Z,0.80
2019-03-21T04:32:33.370Z,0.90
2019-03-21T04:33:33.339Z,1.20
2019-03-21T04:34:33.301Z,1.10
2019-03-21T04:35:33.270Z,0.80
2019-03-21T04:36:33.260Z,1.30
2019-03-21T04:37:33.223Z,0.90
2019-03-21T04:38:33.168Z,1.00
2019-03-21T04:39:33.157Z,0.70
2019-03-21T04:40:33.106Z,0.90
2019-03-21T04:41:33.100Z,0.80
2019-03-21T04:42:33.041Z,0.90
2019-03-21T04:43:33.007Z,0.90
2019-03-21T04:44:32.982Z,1.40
2019-03-21T04:45:32.952Z,1.10
2019-03-21T04:46:32.932Z,0.70
2019-03-21T04:47:32.993Z,0.80
2019-03-21T04:48:33.005Z,1.30
2019-03-21T04:49:32.825Z,1.00
2019-03-21T04:50:32.779Z,0.70
2019-03-21T04:51:32.764Z,0.80
2019-03-21T04:52:32.739Z,0.90
2019-03-21T04:53:32.731Z,0.80
2019-03-21T04:54:32.661Z,0.70
2019-03-21T04:55:32.605Z,0.90
2019-03-21T04:56:32.584Z,0.90
2019-03-21T04:57:32.539Z,0.90
2019-03-21T04:58:32.508Z,0.80
2019-03-21T04:59:32.496Z,1.00
2019-03-21T05:00:32.441Z,1.00
2019-03-21T05:01:32.409Z,0.90
2019-03-21T05:02:32.382Z,0.80
2019-03-21T05:03:32.394Z,0.90
2019-03-21T05:04:32.324Z,1.10
2019-03-21T05:05:32.275Z,1.50
2019-03-21T05:06:32.952Z,0.90
2019-03-21T05:07:32.226Z,1.10
2019-03-21T05:08:32.184Z,1.20
2019-03-21T05:09:32.139Z,1.20
2019-03-21T05:10:32.125Z,1.00
2019-03-21T05:11:32.074Z,0.70
2019-03-21T05:12:32.042Z,1.10
2019-03-21T05:13:32.037Z,1.20
2019-03-21T05:14:31.991Z,0.70
2019-03-21T05:15:31.970Z,0.90
2019-03-21T05:16:31.924Z,0.90
2019-03-21T05:17:31.882Z,1.20
2019-03-21T05:18:31.866Z,1.00
2019-03-21T05:19:31.812Z,1.00
2019-03-21T05:20:32.074Z,1.30
2019-03-21T05:21:31.742Z,1.40
2019-03-21T05:22:31.713Z,0.70
2019-03-21T05:23:31.682Z,1.50
2019-03-21T05:24:31.662Z,1.00
2019-03-21T05:25:31.606Z,0.80
2019-03-21T05:26:31.644Z,0.80
2019-03-21T05:27:31.560Z,1.20
2019-03-21T05:28:31.553Z,0.90
2019-03-21T05:29:31.502Z,0.80
2019-03-21T05:30:31.442Z,1.00
2019-03-21T05:31:31.426Z,1.30
2019-03-21T05:32:31.401Z,1.00
2019-03-21T05:33:31.341Z,1.10
2019-03-21T05:34:31.312Z,0.70
2019-03-21T05:35:31.287Z,1.30
2019-03-21T05:36:31.260Z,1.30
2019-03-21T05:37:31.210Z,0.80
2019-03-21T05:38:31.201Z,0.90
2019-03-21T05:39:31.145Z,1.10
2019-03-21T05:40:31.128Z,1.40
2019-03-21T05:41:31.095Z,0.90
2019-03-21T05:42:31.063Z,0.70
2019-03-21T05:43:31.011Z,1.30
2019-03-21T05:44:31.012Z,1.20
2019-03-21T05:45:30.947Z,1.10
2019-03-21T05:46:30.934Z,1.10
2019-03-21T05:47:31.024Z,0.90
2019-03-21T05:48:30.849Z,1.20
2019-03-21T05:49:30.827Z,0.80
2019-03-21T05:50:30.818Z,1.10
2019-03-21T05:51:30.769Z,1.40
2019-03-21T05:52:30.745Z,1.10
2019-03-21T05:53:30.900Z,0.90
2019-03-21T05:54:30.781Z,1.00
2019-03-21T05:55:30.621Z,0.90
2019-03-21T05:56:30.583Z,1.40
2019-03-21T05:57:30.745Z,1.30
2019-03-21T05:58:30.511Z,0.80
2019-03-21T05:59:30.633Z,1.00
2019-03-21T06:00:30.466Z,1.50
2019-03-21T06:01:30.432Z,0.90
2019-03-21T06:02:30.386Z,1.00
2019-03-21T06:03:30.370Z,1.10
2019-03-21T06:04:30.309Z,1.10
2019-03-21T06:05:30.298Z,0.80
2019-03-21T06:06:30.340Z,0.70
2019-03-21T06:07:30.211Z,0.90
2019-03-21T06:08:30.186Z,1.10
2019-03-21T06:09:30.167Z,1.00
2019-03-21T06:10:30.114Z,1.30
2019-03-21T06:11:30.183Z,1.20
2019-03-21T06:12:30.065Z,1.20
2019-03-21T06:13:30.030Z,0.70
2019-03-21T06:14:29.978Z,0.90
2019-03-21T06:15:29.968Z,1.20
2019-03-21T06:16:37.618Z,0.80
2019-03-21T06:17:29.896Z,1.00
2019-03-21T06:18:29.929Z,0.90
2019-03-21T06:19:29.970Z,1.20
2019-03-21T06:20:29.780Z,1.10
2019-03-21T06:21:29.785Z,0.80
2019-03-21T06:22:29.715Z,1.20
2019-03-21T06:23:29.684Z,1.20
2019-03-21T06:24:30.332Z,1.10
2019-03-21T06:26:29.734Z,0.60
2019-03-21T06:27:29.564Z,1.00
2019-03-21T06:28:29.542Z,0.80
2019-03-21T06:29:29.574Z,0.70
2019-03-21T06:30:29.647Z,0.90
2019-03-21T06:32:29.604Z,0.20
2019-03-21T06:33:29.443Z,0.90
2019-03-21T06:34:29.333Z,0.90
2019-03-21T06:35:29.297Z,1.10
2019-03-21T06:36:29.274Z,0.80
2019-03-21T06:37:29.227Z,1.00
2019-03-21T06:38:29.198Z,1.10
2019-03-21T06:39:29.775Z,1.10
2019-03-21T06:40:29.131Z,0.70
2019-03-21T06:41:29.081Z,0.70
2019-03-21T06:42:29.123Z,0.90
2019-03-21T06:43:29.015Z,1.30
2019-03-21T06:44:28.990Z,0.90
2019-03-21T06:45:28.949Z,0.70
2019-03-21T06:46:28.956Z,0.80
2019-03-21T06:47:28.896Z,1.10
2019-03-21T06:48:29.032Z,0.80
2019-03-21T06:49:28.859Z,0.80
2019-03-21T06:50:28.830Z,0.90
2019-03-21T06:51:28.771Z,1.20
2019-03-21T06:52:28.715Z,0.90
2019-03-21T06:53:28.701Z,0.90
2019-03-21T06:54:28.646Z,1.00
2019-03-21T06:55:28.644Z,1.30
2019-03-21T06:56:28.618Z,0.70
2019-03-21T06:57:28.718Z,0.70
2019-03-21T06:58:28.534Z,1.00
2019-03-21T06:59:28.495Z,1.20
2019-03-21T07:00:28.465Z,0.70
2019-03-21T07:01:28.433Z,0.70
2019-03-21T07:02:28.398Z,0.90
2019-03-21T07:03:28.365Z,1.00
2019-03-21T07:04:28.335Z,0.60
2019-03-21T07:05:28.286Z,0.80
2019-03-21T07:06:28.276Z,1.20
2019-03-21T07:07:28.225Z,1.30
2019-03-21T07:08:28.223Z,0.80
2019-03-21T07:09:29.177Z,1.10
2019-03-21T07:10:28.124Z,0.90
2019-03-21T07:11:28.103Z,0.90
2019-03-21T07:12:28.050Z,0.80
2019-03-21T07:13:28.170Z,1.00
2019-03-21T07:14:27.982Z,1.30
2019-03-21T07:15:27.965Z,0.90
2019-03-21T07:16:27.918Z,1.00
2019-03-21T07:17:27.877Z,1.00
2019-03-21T07:18:27.842Z,0.80
2019-03-21T07:19:27.837Z,0.80
2019-03-21T07:20:27.908Z,0.70
2019-03-21T07:21:27.775Z,1.00
2019-03-21T07:22:27.730Z,1.20
2019-03-21T07:23:27.679Z,0.80
2019-03-21T07:24:27.679Z,0.80
2019-03-21T07:25:27.627Z,0.80
2019-03-21T07:26:27.598Z,1.10
2019-03-21T07:27:27.544Z,1.10
2019-03-21T07:28:27.512Z,0.90
2019-03-21T07:29:27.479Z,1.40
2019-03-21T07:30:27.445Z,1.00
2019-03-21T07:31:27.430Z,0.80
2019-03-21T07:32:33.359Z,0.70
2019-03-21T07:33:27.345Z,0.80
2019-03-21T07:34:27.334Z,1.00
2019-03-21T07:35:27.274Z,0.80
2019-03-21T07:36:27.248Z,1.00
2019-03-21T07:37:27.234Z,1.20
2019-03-21T07:38:27.205Z,1.20
2019-03-21T07:39:28.759Z,1.00
2019-03-21T07:40:27.114Z,0.80
2019-03-21T07:41:27.093Z,1.20
2019-03-21T07:42:27.049Z,0.90
2019-03-21T07:43:27.039Z,1.10
2019-03-21T07:44:26.983Z,0.80
2019-03-21T07:45:27.172Z,1.30
2019-03-21T07:46:26.942Z,1.10
2019-03-21T07:47:26.875Z,0.80
2019-03-21T07:48:26.839Z,0.80
2019-03-21T07:49:26.809Z,1.30
2019-03-21T07:50:26.778Z,1.10
2019-03-21T07:51:26.908Z,0.80
2019-03-21T07:52:26.728Z,0.90
2019-03-21T07:53:26.687Z,0.80
2019-03-21T07:54:26.666Z,1.10
2019-03-21T07:55:26.659Z,1.20
2019-03-21T07:56:26.603Z,0.80
2019-03-21T07:57:26.544Z,0.80
2019-03-21T07:58:26.526Z,1.10
2019-03-21T07:59:26.478Z,1.10
2019-03-21T08:00:26.446Z,0.80
2019-03-21T08:01:26.414Z,1.10
2019-03-21T08:02:26.378Z,0.90
2019-03-21T08:03:26.340Z,1.00
2019-03-21T08:04:26.316Z,0.70
2019-03-21T08:05:26.272Z,0.80
2019-03-21T08:06:26.267Z,0.80
2019-03-21T08:07:26.240Z,1.20
2019-03-21T08:08:26.211Z,0.70
2019-03-21T08:09:26.180Z,1.00
2019-03-21T08:10:26.103Z,0.90
2019-03-21T08:11:26.087Z,1.20
2019-03-21T08:12:26.052Z,0.80
2019-03-21T08:13:26.024Z,1.00
2019-03-21T08:14:25.992Z,1.00
2019-03-21T08:15:25.956Z,0.80
2019-03-21T08:16:25.919Z,0.90
2019-03-21T08:17:26.022Z,0.80
2019-03-21T08:18:25.838Z,1.10
2019-03-21T08:19:25.819Z,0.90
2019-03-21T08:20:25.792Z,0.90
2019-03-21T08:21:25.753Z,0.90
2019-03-21T08:22:25.698Z,0.90
2019-03-21T08:23:25.683Z,1.00
2019-03-21T08:24:25.656Z,0.80
2019-03-21T08:25:25.614Z,0.90
2019-03-21T08:26:25.564Z,1.20
2019-03-21T08:27:25.538Z,1.10
2019-03-21T08:28:25.499Z,0.80
2019-03-21T08:29:25.510Z,1.00
2019-03-21T08:30:25.453Z,0.90
2019-03-21T08:31:25.413Z,0.90
2019-03-21T08:32:25.383Z,0.70
2019-03-21T08:33:25.331Z,1.00
2019-03-21T08:34:25.321Z,1.20
2019-03-21T08:35:25.295Z,1.20
2019-03-21T08:36:25.254Z,0.80
2019-03-21T08:37:25.213Z,0.90
2019-03-21T08:38:25.180Z,0.80
2019-03-21T08:39:25.171Z,0.90
2019-03-21T08:40:25.112Z,1.00
2019-03-21T08:41:25.073Z,0.70
2019-03-21T08:42:25.049Z,1.00
2019-03-21T08:43:25.053Z,1.10
2019-03-21T08:44:25.159Z,1.00
2019-03-21T08:45:24.944Z,0.90
2019-03-21T08:46:24.912Z,0.90
2019-03-21T08:47:24.886Z,1.40
2019-03-21T08:48:24.825Z,0.70
2019-03-21T08:49:24.800Z,0.90
2019-03-21T08:50:24.926Z,1.20
2019-03-21T08:51:24.741Z,0.90
2019-03-21T08:52:24.706Z,0.70
2019-03-21T08:53:24.677Z,0.90
2019-03-21T08:54:24.645Z,0.90
2019-03-21T08:55:24.594Z,0.90
2019-03-21T08:56:24.588Z,0.70
2019-03-21T08:57:24.523Z,0.70
2019-03-21T08:58:24.493Z,1.20
2019-03-21T08:59:24.564Z,1.10
2019-03-21T09:00:33.740Z,0.80
2019-03-21T09:01:24.404Z,0.70
2019-03-21T09:02:24.493Z,1.20
2019-03-21T09:03:24.323Z,0.90
2019-03-21T09:04:24.309Z,0.70
2019-03-21T09:05:24.285Z,1.00
2019-03-21T09:06:24.235Z,1.20
2019-03-21T09:07:24.191Z,0.90
2019-03-21T09:08:24.170Z,0.90
2019-03-21T09:09:24.146Z,0.70
2019-03-21T09:11:24.078Z,0.20
2019-03-21T09:12:24.023Z,1.10
2019-03-21T09:13:24.010Z,0.90
2019-03-21T09:14:23.946Z,0.90
2019-03-21T09:15:24.014Z,1.10
2019-03-21T09:16:24.048Z,0.90
2019-03-21T09:17:23.859Z,0.90
2019-03-21T09:18:23.814Z,1.30
2019-03-21T09:19:23.804Z,0.90
2019-03-21T09:20:23.750Z,1.30
2019-03-21T09:21:23.725Z,0.80
2019-03-21T09:22:23.700Z,1.00
2019-03-21T09:23:23.669Z,1.00
2019-03-21T09:24:23.639Z,0.90
2019-03-21T09:25:23.583Z,0.90
2019-03-21T09:26:23.553Z,1.10
2019-03-21T09:27:23.516Z,0.90
2019-03-21T09:28:23.489Z,0.80
2019-03-21T09:29:23.524Z,1.10
2019-03-21T09:30:23.416Z,0.70
2019-03-21T09:31:23.400Z,1.30
2019-03-21T09:32:23.455Z,1.00
2019-03-21T09:33:23.346Z,0.70
2019-03-21T09:34:23.292Z,0.60
2019-03-21T09:35:23.244Z,0.80
2019-03-21T09:36:23.224Z,1.00
2019-03-21T09:37:23.177Z,0.90
2019-03-21T09:38:23.154Z,0.80
2019-03-21T09:39:23.110Z,0.90
2019-03-21T09:40:23.092Z,1.10
2019-03-21T09:41:23.045Z,0.90
2019-03-21T09:42:23.039Z,1.00
2019-03-21T09:43:22.992Z,1.10
2019-03-21T09:44:22.956Z,1.00
2019-03-21T09:45:22.920Z,0.80
2019-03-21T09:46:22.898Z,0.90
2019-03-21T09:47:22.852Z,0.90
2019-03-21T09:48:22.806Z,0.90
2019-03-21T09:49:22.767Z,0.80
2019-03-21T09:50:22.762Z,0.60
2019-03-21T09:51:30.540Z,1.20
2019-03-21T09:52:22.696Z,1.10
2019-03-21T09:53:22.667Z,0.90
2019-03-21T09:54:22.604Z,1.10
2019-03-21T09:55:22.588Z,0.70
2019-03-21T09:56:24.097Z,1.00
2019-03-21T09:57:22.497Z,0.90
2019-03-21T09:58:22.485Z,0.80
2019-03-21T09:59:22.860Z,1.20
2019-03-21T10:00:22.415Z,0.80
2019-03-21T10:01:22.392Z,1.40
2019-03-21T10:02:22.354Z,0.90
2019-03-21T10:03:22.318Z,0.90
2019-03-21T10:04:22.304Z,1.20
2019-03-21T10:05:22.238Z,0.90
2019-03-21T10:06:22.199Z,0.80
2019-03-21T10:07:22.199Z,1.00
2019-03-21T10:08:22.148Z,0.80
2019-03-21T10:09:22.135Z,1.10
2019-03-21T10:10:22.067Z,0.70
2019-03-21T10:11:22.032Z,0.80
2019-03-21T10:12:22.019Z,0.90
2019-03-21T10:13:21.989Z,1.10
2019-03-21T10:14:21.949Z,0.70
2019-03-21T10:15:22.068Z,1.00
2019-03-21T10:16:22.029Z,1.20
2019-03-21T10:17:21.833Z,1.00
2019-03-21T10:18:23.039Z,1.00
2019-03-21T10:19:21.805Z,0.70
2019-03-21T10:20:21.739Z,1.10
2019-03-21T10:21:21.705Z,0.80
2019-03-21T10:22:21.691Z,0.80
2019-03-21T10:23:21.657Z,0.80
2019-03-21T10:24:21.680Z,1.10
2019-03-21T10:25:21.581Z,1.00
2019-03-21T10:26:21.687Z,0.70
2019-03-21T10:27:21.524Z,0.90
2019-03-21T10:28:21.493Z,1.30
2019-03-21T10:29:21.437Z,0.70
2019-03-21T10:30:21.403Z,0.90
2019-03-21T10:31:21.372Z,1.10
2019-03-21T10:32:21.345Z,0.90
2019-03-21T10:33:21.313Z,0.70
2019-03-21T10:34:21.274Z,1.00
2019-03-21T10:35:21.242Z,1.20
2019-03-21T10:36:21.231Z,0.90
2019-03-21T10:37:21.202Z,0.70
2019-03-21T10:38:21.144Z,0.80
2019-03-21T10:39:21.109Z,1.10
2019-03-21T10:40:21.085Z,0.90
2019-03-21T10:41:21.050Z,1.00
2019-03-21T10:42:21.188Z,1.30
2019-03-21T10:43:20.993Z,1.10
2019-03-21T10:44:20.970Z,0.80
2019-03-21T10:45:20.942Z,1.00
2019-03-21T10:46:20.960Z,0.90
2019-03-21T10:47:20.857Z,0.70
2019-03-21T10:48:23.333Z,0.90
2019-03-21T10:49:20.810Z,1.10
2019-03-21T10:50:20.784Z,1.10
2019-03-21T10:51:20.750Z,1.70
2019-03-21T10:52:20.695Z,1.60
2019-03-21T10:53:20.734Z,1.10
2019-03-21T10:54:20.632Z,1.30
2019-03-21T10:55:20.839Z,2.00
2019-03-21T10:56:20.569Z,1.50
2019-03-21T10:57:20.542Z,1.50
2019-03-21T10:58:20.540Z,1.10
2019-03-21T10:59:20.636Z,1.50
2019-03-21T11:00:20.447Z,3.00
2019-03-21T11:01:20.432Z,2.20
2019-03-21T11:02:20.401Z,2.00
2019-03-21T11:03:20.349Z,1.90
2019-03-21T11:04:20.341Z,1.30
2019-03-21T11:05:22.973Z,1.50
2019-03-21T11:06:20.276Z,1.10
2019-03-21T11:07:20.225Z,1.30
2019-03-21T11:08:20.195Z,1.20
2019-03-21T11:09:20.192Z,1.40
2019-03-21T11:10:20.160Z,0.90
2019-03-21T11:11:20.121Z,1.00
2019-03-21T11:12:20.070Z,1.70
2019-03-21T11:13:20.090Z,1.20
2019-03-21T11:14:20.016Z,1.10
2019-03-21T11:15:20.003Z,1.60
2019-03-21T11:16:20.058Z,1.30
2019-03-21T11:17:19.924Z,1.60
2019-03-21T11:18:19.888Z,1.40
2019-03-21T11:19:19.908Z,1.10
2019-03-21T11:20:19.839Z,1.20
2019-03-21T11:21:19.817Z,0.90
2019-03-21T11:22:19.779Z,1.20
2019-03-21T11:23:19.762Z,1.00
2019-03-21T11:24:19.715Z,1.00
2019-03-21T11:25:19.688Z,1.10
2019-03-21T11:26:19.688Z,1.20
2019-03-21T11:27:19.619Z,0.80
2019-03-21T11:28:19.579Z,1.00
2019-03-21T11:29:19.564Z,1.10
2019-03-21T11:30:19.533Z,1.10
2019-03-21T11:31:19.654Z,0.80
2019-03-21T11:32:19.455Z,1.00
2019-03-21T11:33:19.434Z,1.00
2019-03-21T11:34:19.405Z,0.80
2019-03-21T11:35:19.371Z,0.60
2019-03-21T11:36:19.344Z,0.70
2019-03-21T11:37:19.312Z,1.10
2019-03-21T11:38:19.254Z,0.70
2019-03-21T11:39:19.242Z,1.00
2019-03-21T11:40:19.197Z,0.80
2019-03-21T11:41:19.173Z,0.80
2019-03-21T11:42:19.128Z,1.10
2019-03-21T11:43:19.096Z,0.80
2019-03-21T11:44:19.085Z,0.80
2019-03-21T11:45:19.053Z,0.80
2019-03-21T11:46:19.031Z,1.10
2019-03-21T11:47:19.338Z,1.10
2019-03-21T11:48:18.957Z,0.80
2019-03-21T11:49:18.907Z,0.90
2019-03-21T11:50:18.917Z,1.00
2019-03-21T11:51:18.863Z,0.80
2019-03-21T11:52:18.950Z,0.80
2019-03-21T11:53:19.065Z,1.20
2019-03-21T11:54:18.768Z,1.10
2019-03-21T11:55:18.744Z,0.90
2019-03-21T11:56:18.690Z,0.80
2019-03-21T11:57:18.678Z,1.10
2019-03-21T11:58:18.620Z,0.80
2019-03-21T11:59:18.609Z,1.10
2019-03-21T12:00:18.575Z,0.70
2019-03-21T12:01:18.530Z,1.00
2019-03-21T12:02:26.542Z,1.00
2019-03-21T12:03:18.665Z,0.80
2019-03-21T12:04:18.438Z,1.20
2019-03-21T12:05:18.405Z,0.70
2019-03-21T12:06:18.392Z,1.00
2019-03-21T12:07:18.347Z,1.10
2019-03-21T12:08:18.471Z,0.80
2019-03-21T12:09:18.291Z,1.00
2019-03-21T12:10:18.236Z,1.00
2019-03-21T12:11:18.238Z,1.00
2019-03-21T12:12:18.197Z,0.90
2019-03-21T12:13:18.169Z,1.10
2019-03-21T12:14:18.118Z,1.10
2019-03-21T12:15:18.080Z,0.80
2019-03-21T12:16:18.069Z,1.00
2019-03-21T12:17:18.037Z,1.10
2019-03-21T12:18:18.006Z,0.80
2019-03-21T12:19:17.951Z,0.60
2019-03-21T12:20:17.922Z,0.90
2019-03-21T12:21:17.907Z,1.60
2019-03-21T12:22:29.180Z,1.00
2019-03-21T12:23:17.828Z,0.80
2019-03-21T12:24:17.813Z,0.90
2019-03-21T12:25:17.760Z,1.00
2019-03-21T12:26:17.756Z,0.90
2019-03-21T12:27:17.717Z,1.30
2019-03-21T12:28:17.675Z,1.50
2019-03-21T12:29:17.640Z,0.80
2019-03-21T12:30:17.603Z,0.80
2019-03-21T12:31:17.596Z,1.20
2019-03-21T12:32:17.550Z,0.80
2019-03-21T12:33:17.530Z,0.70
2019-03-21T12:34:17.652Z,0.80
2019-03-21T12:35:17.443Z,0.80
2019-03-21T12:36:17.419Z,0.90
2019-03-21T12:37:17.388Z,0.80
2019-03-21T12:38:17.353Z,1.10
2019-03-21T12:39:17.342Z,1.00
2019-03-21T12:40:17.305Z,0.90
2019-03-21T12:41:17.253Z,0.80
2019-03-21T12:42:17.239Z,1.10
2019-03-21T12:43:17.193Z,0.70
2019-03-21T12:44:17.180Z,0.90
2019-03-21T12:45:17.141Z,1.00
2019-03-21T12:46:17.115Z,1.20
2019-03-21T12:47:17.073Z,0.70
2019-03-21T12:48:17.061Z,1.10
2019-03-21T12:49:17.026Z,1.10
2019-03-21T12:50:16.971Z,0.90
2019-03-21T12:51:16.947Z,0.70
2019-03-21T12:52:16.925Z,0.90
2019-03-21T12:53:16.879Z,0.80
2019-03-21T12:54:16.836Z,0.70
2019-03-21T12:55:16.891Z,0.90
2019-03-21T12:56:16.822Z,1.20
2019-03-21T12:57:16.778Z,0.70
2019-03-21T12:58:16.738Z,0.80
2019-03-21T12:59:16.693Z,0.80
2019-03-21T13:00:16.678Z,1.10
2019-03-21T13:01:16.624Z,0.70
2019-03-21T13:02:16.601Z,1.20
2019-03-21T13:03:16.581Z,0.90
2019-03-21T13:04:16.544Z,0.90
2019-03-21T13:05:16.798Z,0.80
2019-03-21T13:06:16.455Z,0.70
2019-03-21T13:07:18.013Z,1.20
2019-03-21T13:08:16.442Z,1.10
2019-03-21T13:09:16.359Z,0.90
2019-03-21T13:10:16.330Z,0.80
2019-03-21T13:11:16.319Z,0.80
2019-03-21T13:12:16.273Z,0.80
2019-03-21T13:13:16.232Z,1.20
2019-03-21T13:14:16.217Z,1.00
2019-03-21T13:15:16.187Z,0.80
2019-03-21T13:16:16.155Z,1.20
2019-03-21T13:17:16.102Z,1.30
2019-03-21T13:18:16.075Z,0.70
2019-03-21T13:19:16.052Z,0.90
2019-03-21T13:20:16.027Z,1.00
2019-03-21T13:21:16.194Z,0.90
2019-03-21T13:22:15.986Z,1.20
2019-03-21T13:23:15.935Z,1.00